sensor_id;sensor_type;location;lat;lon;timestamp;pressure;altitude;pressure_sealevel;temperature;humidity
69524;BME280;56723;42.694;23.286;2022-08-21T00:00:17;94543.94;;;17.26;100.00
69524;BME280;56723;42.694;23.286;2022-08-21T00:02:49;94531.22;;;17.30;100.00
69524;BME280;56723;42.694;23.286;2022-08-21T00:05:17;94523.53;;;17.35;100.00
69524;BME280;56723;42.694;23.286;2022-08-21T00:07:44;94540.25;;;17.34;100.00
69524;BME280;56723;42.694;23.286;2022-08-21T00:10:11;94547.09;;;17.35;100.00
69524;BME280;56723;42.694;23.286;2022-08-21T00:12:40;94534.16;;;17.40;100.00
69524;BME280;56723;42.694;23.286;2022-08-21T00:15:08;94537.91;;;17.44;100.00
69524;BME280;56723;42.694;23.286;2022-08-21T00:17:37;94538.00;;;17.38;100.00
69524;BME280;56723;42.694;23.286;2022-08-21T00:20:06;94532.13;;;17.42;100.00
69524;BME280;56723;42.694;23.286;2022-08-21T00:22:35;94525.41;;;17.46;100.00
69524;BME280;56723;42.694;23.286;2022-08-21T00:25:05;94513.78;;;17.42;100.00
69524;BME280;56723;42.694;23.286;2022-08-21T00:27:33;94513.31;;;17.45;100.00
69524;BME280;56723;42.694;23.286;2022-08-21T00:30:02;94504.09;;;17.43;100.00
69524;BME280;56723;42.694;23.286;2022-08-21T00:32:29;94503.75;;;17.39;100.00
69524;BME280;56723;42.694;23.286;2022-08-21T00:34:56;94512.78;;;17.43;100.00
69524;BME280;56723;42.694;23.286;2022-08-21T00:37:23;94517.22;;;17.43;100.00
69524;BME280;56723;42.694;23.286;2022-08-21T00:39:50;94515.25;;;17.38;100.00
69524;BME280;56723;42.694;23.286;2022-08-21T00:42:17;94516.47;;;17.36;100.00
69524;BME280;56723;42.694;23.286;2022-08-21T00:44:48;94524.53;;;17.34;100.00
69524;BME280;56723;42.694;23.286;2022-08-21T00:47:18;94512.78;;;17.25;100.00
69524;BME280;56723;42.694;23.286;2022-08-21T00:49:45;94526.28;;;17.22;100.00
69524;BME280;56723;42.694;23.286;2022-08-21T00:52:17;94526.94;;;17.17;100.00
69524;BME280;56723;42.694;23.286;2022-08-21T00:54:47;94527.16;;;17.16;100.00
69524;BME280;56723;42.694;23.286;2022-08-21T00:57:19;94515.09;;;17.15;100.00
69524;BME280;56723;42.694;23.286;2022-08-21T00:59:49;94514.66;;;17.18;100.00
69524;BME280;56723;42.694;23.286;2022-08-21T01:02:18;94507.00;;;17.16;100.00
69524;BME280;56723;42.694;23.286;2022-08-21T01:04:47;94512.25;;;17.16;100.00
69524;BME280;56723;42.694;23.286;2022-08-21T01:07:14;94511.44;;;17.16;100.00
69524;BME280;56723;42.694;23.286;2022-08-21T01:09:41;94513.91;;;17.11;100.00
69524;BME280;56723;42.694;23.286;2022-08-21T01:12:09;94514.94;;;17.10;100.00
69524;BME280;56723;42.694;23.286;2022-08-21T01:14:38;94499.44;;;17.08;100.00
69524;BME280;56723;42.694;23.286;2022-08-21T01:17:08;94502.31;;;17.07;100.00
69524;BME280;56723;42.694;23.286;2022-08-21T01:19:36;94487.38;;;17.07;100.00
69524;BME280;56723;42.694;23.286;2022-08-21T01:22:03;94483.19;;;17.06;100.00
69524;BME280;56723;42.694;23.286;2022-08-21T01:24:31;94491.38;;;17.10;100.00
69524;BME280;56723;42.694;23.286;2022-08-21T01:26:59;94495.59;;;17.11;100.00
69524;BME280;56723;42.694;23.286;2022-08-21T01:29:41;94500.25;;;17.09;100.00
69524;BME280;56723;42.694;23.286;2022-08-21T01:32:16;94489.22;;;17.07;100.00
69524;BME280;56723;42.694;23.286;2022-08-21T01:34:45;94493.41;;;17.08;100.00
69524;BME280;56723;42.694;23.286;2022-08-21T01:37:13;94490.94;;;17.13;100.00
69524;BME280;56723;42.694;23.286;2022-08-21T01:39:44;94494.19;;;17.08;100.00
69524;BME280;56723;42.694;23.286;2022-08-21T01:42:11;94500.69;;;17.06;100.00
69524;BME280;56723;42.694;23.286;2022-08-21T01:44:38;94491.47;;;17.03;100.00
69524;BME280;56723;42.694;23.286;2022-08-21T01:47:08;94502.31;;;17.07;100.00
69524;BME280;56723;42.694;23.286;2022-08-21T01:49:36;94503.16;;;17.01;100.00
69524;BME280;56723;42.694;23.286;2022-08-21T01:52:05;94505.19;;;16.99;100.00
69524;BME280;56723;42.694;23.286;2022-08-21T01:54:36;94512.03;;;17.00;100.00
69524;BME280;56723;42.694;23.286;2022-08-21T01:57:03;94508.03;;;16.97;100.00
69524;BME280;56723;42.694;23.286;2022-08-21T01:59:31;94493.53;;;16.94;100.00
69524;BME280;56723;42.694;23.286;2022-08-21T02:01:59;94506.19;;;16.98;100.00
69524;BME280;56723;42.694;23.286;2022-08-21T02:04:26;94499.38;;;16.96;100.00
69524;BME280;56723;42.694;23.286;2022-08-21T02:06:53;94510.25;;;16.93;100.00
69524;BME280;56723;42.694;23.286;2022-08-21T02:09:20;94508.44;;;16.94;100.00
69524;BME280;56723;42.694;23.286;2022-08-21T02:11:50;94514.47;;;16.94;100.00
69524;BME280;56723;42.694;23.286;2022-08-21T02:14:18;94512.88;;;16.93;100.00
69524;BME280;56723;42.694;23.286;2022-08-21T02:16:59;94511.88;;;16.94;100.00
69524;BME280;56723;42.694;23.286;2022-08-21T02:19:36;94503.84;;;16.89;100.00
69524;BME280;56723;42.694;23.286;2022-08-21T02:22:08;94507.94;;;16.85;100.00
69524;BME280;56723;42.694;23.286;2022-08-21T02:24:37;94513.38;;;16.84;100.00
69524;BME280;56723;42.694;23.286;2022-08-21T02:27:21;94504.75;;;16.83;100.00
69524;BME280;56723;42.694;23.286;2022-08-21T02:29:53;94506.94;;;16.86;100.00
69524;BME280;56723;42.694;23.286;2022-08-21T02:32:20;94515.22;;;16.83;100.00
69524;BME280;56723;42.694;23.286;2022-08-21T02:34:48;94520.81;;;16.87;100.00
69524;BME280;56723;42.694;23.286;2022-08-21T02:37:15;94514.56;;;16.88;100.00
69524;BME280;56723;42.694;23.286;2022-08-21T02:39:42;94516.13;;;16.89;100.00
69524;BME280;56723;42.694;23.286;2022-08-21T02:42:09;94525.84;;;16.88;100.00
69524;BME280;56723;42.694;23.286;2022-08-21T02:44:36;94523.22;;;16.88;100.00
69524;BME280;56723;42.694;23.286;2022-08-21T02:47:03;94525.38;;;16.91;100.00
69524;BME280;56723;42.694;23.286;2022-08-21T02:49:30;94518.31;;;16.92;100.00
69524;BME280;56723;42.694;23.286;2022-08-21T02:51:57;94518.53;;;16.90;100.00
69524;BME280;56723;42.694;23.286;2022-08-21T02:54:24;94508.88;;;16.91;100.00
69524;BME280;56723;42.694;23.286;2022-08-21T02:56:51;94511.69;;;16.89;100.00
69524;BME280;56723;42.694;23.286;2022-08-21T02:59:18;94506.03;;;16.92;100.00
69524;BME280;56723;42.694;23.286;2022-08-21T03:01:46;94516.31;;;16.94;100.00
69524;BME280;56723;42.694;23.286;2022-08-21T03:04:13;94513.69;;;16.94;100.00
69524;BME280;56723;42.694;23.286;2022-08-21T03:06:40;94519.72;;;16.94;100.00
69524;BME280;56723;42.694;23.286;2022-08-21T03:09:07;94522.72;;;16.98;100.00
69524;BME280;56723;42.694;23.286;2022-08-21T03:11:34;94522.50;;;17.00;100.00
69524;BME280;56723;42.694;23.286;2022-08-21T03:14:02;94514.47;;;16.94;100.00
69524;BME280;56723;42.694;23.286;2022-08-21T03:16:31;94523.72;;;16.97;100.00
69524;BME280;56723;42.694;23.286;2022-08-21T03:19:01;94526.56;;;16.95;100.00
69524;BME280;56723;42.694;23.286;2022-08-21T03:21:28;94519.72;;;16.94;100.00
69524;BME280;56723;42.694;23.286;2022-08-21T03:23:55;94522.28;;;17.01;100.00
69524;BME280;56723;42.694;23.286;2022-08-21T03:26:22;94520.47;;;17.02;100.00
69524;BME280;56723;42.694;23.286;2022-08-21T03:28:53;94524.91;;;17.01;100.00
69524;BME280;56723;42.694;23.286;2022-08-21T03:31:20;94524.09;;;17.01;100.00
69524;BME280;56723;42.694;23.286;2022-08-21T03:33:48;94516.84;;;17.03;100.00
69524;BME280;56723;42.694;23.286;2022-08-21T03:36:15;94511.59;;;17.03;100.00
69524;BME280;56723;42.694;23.286;2022-08-21T03:38:42;94508.81;;;16.98;100.00
69524;BME280;56723;42.694;23.286;2022-08-21T03:41:09;94512.19;;;17.05;100.00
69524;BME280;56723;42.694;23.286;2022-08-21T03:43:36;94510.38;;;17.05;100.00
69524;BME280;56723;42.694;23.286;2022-08-21T03:46:05;94505.94;;;17.06;100.00
69524;BME280;56723;42.694;23.286;2022-08-21T03:48:34;94511.97;;;17.06;100.00
69524;BME280;56723;42.694;23.286;2022-08-21T03:51:01;94518.00;;;17.07;100.00
69524;BME280;56723;42.694;23.286;2022-08-21T03:53:29;94518.22;;;17.05;100.00
69524;BME280;56723;42.694;23.286;2022-08-21T03:55:56;94519.66;;;17.01;100.00
69524;BME280;56723;42.694;23.286;2022-08-21T03:58:27;94532.53;;;17.03;100.00
69524;BME280;56723;42.694;23.286;2022-08-21T04:00:56;94527.50;;;17.01;100.00
69524;BME280;56723;42.694;23.286;2022-08-21T04:03:25;94538.63;;;16.96;100.00
69524;BME280;56723;42.694;23.286;2022-08-21T04:05:52;94538.91;;;16.88;100.00
69524;BME280;56723;42.694;23.286;2022-08-21T04:08:19;94531.53;;;16.79;100.00
69524;BME280;56723;42.694;23.286;2022-08-21T04:10:51;94529.13;;;16.77;100.00
69524;BME280;56723;42.694;23.286;2022-08-21T04:13:19;94540.44;;;16.71;100.00
69524;BME280;56723;42.694;23.286;2022-08-21T04:15:47;94540.91;;;16.68;100.00
69524;BME280;56723;42.694;23.286;2022-08-21T04:18:15;94536.69;;;16.67;100.00
69524;BME280;56723;42.694;23.286;2022-08-21T04:20:43;94534.50;;;16.64;100.00
69524;BME280;56723;42.694;23.286;2022-08-21T04:23:18;94527.22;;;16.66;100.00
69524;BME280;56723;42.694;23.286;2022-08-21T04:25:50;94516.78;;;16.66;100.00
69524;BME280;56723;42.694;23.286;2022-08-21T04:28:18;94526.81;;;16.69;100.00
69524;BME280;56723;42.694;23.286;2022-08-21T04:30:45;94527.63;;;16.70;100.00
69524;BME280;56723;42.694;23.286;2022-08-21T04:33:12;94519.19;;;16.68;100.00
69524;BME280;56723;42.694;23.286;2022-08-21T04:35:39;94526.00;;;16.69;100.00
69524;BME280;56723;42.694;23.286;2022-08-21T04:38:06;94534.38;;;16.77;100.00
69524;BME280;56723;42.694;23.286;2022-08-21T04:40:33;94535.97;;;16.78;100.00
69524;BME280;56723;42.694;23.286;2022-08-21T04:43:04;94539.34;;;16.85;100.00
69524;BME280;56723;42.694;23.286;2022-08-21T04:45:37;94530.69;;;16.85;100.00
69524;BME280;56723;42.694;23.286;2022-08-21T04:48:06;94530.03;;;16.89;100.00
69524;BME280;56723;42.694;23.286;2022-08-21T04:53:14;94537.59;;;16.98;100.00
69524;BME280;56723;42.694;23.286;2022-08-21T04:55:42;94531.38;;;16.99;100.00
69524;BME280;56723;42.694;23.286;2022-08-21T04:58:11;94530.13;;;17.01;100.00
69524;BME280;56723;42.694;23.286;2022-08-21T05:00:40;94522.78;;;17.10;100.00
69524;BME280;56723;42.694;23.286;2022-08-21T05:03:08;94518.72;;;17.14;100.00
69524;BME280;56723;42.694;23.286;2022-08-21T05:05:36;94525.34;;;17.16;100.00
69524;BME280;56723;42.694;23.286;2022-08-21T05:08:04;94533.63;;;17.13;100.00
69524;BME280;56723;42.694;23.286;2022-08-21T05:10:32;94542.44;;;17.19;100.00
69524;BME280;56723;42.694;23.286;2022-08-21T05:13:00;94538.00;;;17.19;100.00
69524;BME280;56723;42.694;23.286;2022-08-21T05:15:27;94537.56;;;17.22;100.00
69524;BME280;56723;42.694;23.286;2022-08-21T05:17:54;94537.16;;;17.25;100.00
69524;BME280;56723;42.694;23.286;2022-08-21T05:20:27;94532.13;;;17.24;100.00
69524;BME280;56723;42.694;23.286;2022-08-21T05:22:55;94538.66;;;17.33;100.00
69524;BME280;56723;42.694;23.286;2022-08-21T05:25:22;94537.41;;;17.36;100.00
69524;BME280;56723;42.694;23.286;2022-08-21T05:27:50;94529.72;;;17.41;100.00
69524;BME280;56723;42.694;23.286;2022-08-21T05:30:18;94534.84;;;17.47;100.00
69524;BME280;56723;42.694;23.286;2022-08-21T05:32:46;94532.25;;;17.47;100.00
69524;BME280;56723;42.694;23.286;2022-08-21T05:35:14;94532.03;;;17.49;100.00
69524;BME280;56723;42.694;23.286;2022-08-21T05:37:41;94520.91;;;17.53;100.00
69524;BME280;56723;42.694;23.286;2022-08-21T05:40:09;94524.47;;;17.59;100.00
69524;BME280;56723;42.694;23.286;2022-08-21T05:42:50;94524.63;;;17.64;100.00
69524;BME280;56723;42.694;23.286;2022-08-21T05:45:22;94524.97;;;17.68;100.00
69524;BME280;56723;42.694;23.286;2022-08-21T05:48:14;94522.94;;;17.70;100.00
69524;BME280;56723;42.694;23.286;2022-08-21T05:50:42;94515.88;;;17.70;100.00
69524;BME280;56723;42.694;23.286;2022-08-21T05:53:10;94517.84;;;17.75;100.00
69524;BME280;56723;42.694;23.286;2022-08-21T05:55:38;94523.22;;;17.80;100.00
69524;BME280;56723;42.694;23.286;2022-08-21T05:58:16;94521.63;;;17.79;100.00
69524;BME280;56723;42.694;23.286;2022-08-21T06:00:45;94530.50;;;17.78;100.00
69524;BME280;56723;42.694;23.286;2022-08-21T06:03:22;94532.13;;;17.79;100.00
69524;BME280;56723;42.694;23.286;2022-08-21T06:05:50;94533.72;;;17.80;100.00
69524;BME280;56723;42.694;23.286;2022-08-21T06:08:18;94527.66;;;17.79;100.00
69524;BME280;56723;42.694;23.286;2022-08-21T06:10:46;94531.09;;;17.80;100.00
69524;BME280;56723;42.694;23.286;2022-08-21T06:13:15;94527.31;;;17.76;100.00
69524;BME280;56723;42.694;23.286;2022-08-21T06:15:43;94525.72;;;17.75;100.00
69524;BME280;56723;42.694;23.286;2022-08-21T06:18:10;94515.44;;;17.73;100.00
69524;BME280;56723;42.694;23.286;2022-08-21T06:20:38;94522.44;;;17.79;100.00
69524;BME280;56723;42.694;23.286;2022-08-21T06:23:05;94528.38;;;17.86;100.00
69524;BME280;56723;42.694;23.286;2022-08-21T06:25:33;94517.66;;;17.88;100.00
69524;BME280;56723;42.694;23.286;2022-08-21T06:28:05;94521.81;;;17.95;100.00
69524;BME280;56723;42.694;23.286;2022-08-21T06:30:33;94520.78;;;17.96;100.00
69524;BME280;56723;42.694;23.286;2022-08-21T06:33:00;94528.97;;;18.00;100.00
69524;BME280;56723;42.694;23.286;2022-08-21T06:35:29;94519.78;;;18.09;100.00
69524;BME280;56723;42.694;23.286;2022-08-21T06:37:57;94526.41;;;18.12;100.00
69524;BME280;56723;42.694;23.286;2022-08-21T06:40:25;94530.28;;;18.09;100.00
69524;BME280;56723;42.694;23.286;2022-08-21T06:42:56;94519.22;;;18.07;100.00
69524;BME280;56723;42.694;23.286;2022-08-21T06:45:24;94529.25;;;18.10;100.00
69524;BME280;56723;42.694;23.286;2022-08-21T06:47:53;94511.56;;;18.06;100.00
69524;BME280;56723;42.694;23.286;2022-08-21T06:50:21;94523.03;;;18.23;100.00
69524;BME280;56723;42.694;23.286;2022-08-21T06:52:48;94533.66;;;18.40;100.00
69524;BME280;56723;42.694;23.286;2022-08-21T06:55:15;94520.81;;;18.50;100.00
69524;BME280;56723;42.694;23.286;2022-08-21T06:57:47;94515.16;;;18.64;100.00
69524;BME280;56723;42.694;23.286;2022-08-21T07:00:19;94529.06;;;18.77;100.00
69524;BME280;56723;42.694;23.286;2022-08-21T07:02:46;94530.00;;;18.82;100.00
69524;BME280;56723;42.694;23.286;2022-08-21T07:05:13;94529.53;;;18.85;100.00
69524;BME280;56723;42.694;23.286;2022-08-21T07:07:44;94531.50;;;18.90;100.00
69524;BME280;56723;42.694;23.286;2022-08-21T07:10:13;94538.56;;;18.89;100.00
69524;BME280;56723;42.694;23.286;2022-08-21T07:12:49;94535.00;;;18.95;100.00
69524;BME280;56723;42.694;23.286;2022-08-21T07:15:28;94528.97;;;19.07;100.00
69524;BME280;56723;42.694;23.286;2022-08-21T07:17:56;94534.09;;;19.13;100.00
69524;BME280;56723;42.694;23.286;2022-08-21T07:20:23;94538.56;;;19.24;100.00
69524;BME280;56723;42.694;23.286;2022-08-21T07:22:51;94531.47;;;19.25;100.00
69524;BME280;56723;42.694;23.286;2022-08-21T07:25:18;94536.94;;;19.35;100.00
69524;BME280;56723;42.694;23.286;2022-08-21T07:27:45;94544.47;;;19.43;100.00
69524;BME280;56723;42.694;23.286;2022-08-21T07:30:12;94530.06;;;19.57;100.00
69524;BME280;56723;42.694;23.286;2022-08-21T07:32:39;94531.84;;;19.68;98.58
69524;BME280;56723;42.694;23.286;2022-08-21T07:35:06;94522.19;;;19.86;96.43
69524;BME280;56723;42.694;23.286;2022-08-21T07:37:33;94517.63;;;19.93;91.83
69524;BME280;56723;42.694;23.286;2022-08-21T07:40:01;94509.63;;;19.88;94.48
69524;BME280;56723;42.694;23.286;2022-08-21T07:42:28;94512.00;;;20.01;95.98
69524;BME280;56723;42.694;23.286;2022-08-21T07:44:55;94506.19;;;20.16;93.54
69524;BME280;56723;42.694;23.286;2022-08-21T07:47:22;94504.16;;;20.34;91.65
69524;BME280;56723;42.694;23.286;2022-08-21T07:50:10;94513.25;;;20.44;92.55
69524;BME280;56723;42.694;23.286;2022-08-21T07:52:39;94503.16;;;20.52;91.44
69524;BME280;56723;42.694;23.286;2022-08-21T07:55:08;94509.06;;;20.76;90.40
69524;BME280;56723;42.694;23.286;2022-08-21T07:57:35;94503.03;;;20.97;86.29
69524;BME280;56723;42.694;23.286;2022-08-21T08:00:08;94507.78;;;21.17;85.08
69524;BME280;56723;42.694;23.286;2022-08-21T08:02:39;94505.59;;;21.09;84.02
69524;BME280;56723;42.694;23.286;2022-08-21T08:05:09;94518.91;;;21.02;81.62
69524;BME280;56723;42.694;23.286;2022-08-21T08:07:37;94521.88;;;21.06;82.31
69524;BME280;56723;42.694;23.286;2022-08-21T08:10:06;94519.97;;;21.01;82.87
69524;BME280;56723;42.694;23.286;2022-08-21T08:12:35;94512.25;;;20.78;82.78
69524;BME280;56723;42.694;23.286;2022-08-21T08:15:03;94515.38;;;20.58;83.33
69524;BME280;56723;42.694;23.286;2022-08-21T08:17:31;94507.94;;;20.38;84.40
69524;BME280;56723;42.694;23.286;2022-08-21T08:19:59;94508.50;;;20.41;83.82
69524;BME280;56723;42.694;23.286;2022-08-21T08:22:27;94506.25;;;20.49;85.20
69524;BME280;56723;42.694;23.286;2022-08-21T08:24:54;94505.69;;;20.64;82.71
69524;BME280;56723;42.694;23.286;2022-08-21T08:27:22;94477.47;;;20.59;80.24
69524;BME280;56723;42.694;23.286;2022-08-21T08:29:49;94504.34;;;20.78;79.84
69524;BME280;56723;42.694;23.286;2022-08-21T08:32:17;94513.88;;;21.01;78.84
69524;BME280;56723;42.694;23.286;2022-08-21T08:34:45;94509.56;;;21.12;77.62
69524;BME280;56723;42.694;23.286;2022-08-21T08:37:13;94505.66;;;21.31;77.93
69524;BME280;56723;42.694;23.286;2022-08-21T08:39:40;94505.47;;;21.59;76.92
69524;BME280;56723;42.694;23.286;2022-08-21T08:42:28;94504.09;;;21.78;74.52
69524;BME280;56723;42.694;23.286;2022-08-21T08:45:04;94506.56;;;21.85;74.52
69524;BME280;56723;42.694;23.286;2022-08-21T08:47:35;94511.06;;;21.90;73.04
69524;BME280;56723;42.694;23.286;2022-08-21T08:50:21;94510.84;;;21.91;75.05
69524;BME280;56723;42.694;23.286;2022-08-21T08:53:12;94501.38;;;22.17;73.78
69524;BME280;56723;42.694;23.286;2022-08-21T08:55:43;94498.69;;;22.39;70.71
69524;BME280;56723;42.694;23.286;2022-08-21T08:58:38;94494.81;;;22.52;69.43
69524;BME280;56723;42.694;23.286;2022-08-21T09:01:15;94490.38;;;22.57;69.25
69524;BME280;56723;42.694;23.286;2022-08-21T09:03:43;94485.78;;;22.42;68.45
69524;BME280;56723;42.694;23.286;2022-08-21T09:06:23;94482.22;;;22.59;68.35
69524;BME280;56723;42.694;23.286;2022-08-21T09:11:46;94474.66;;;23.09;64.37
69524;BME280;56723;42.694;23.286;2022-08-21T09:26:12;94474.72;;;23.25;63.11
69524;BME280;56723;42.694;23.286;2022-08-21T09:28:40;94450.34;;;23.12;63.93
69524;BME280;56723;42.694;23.286;2022-08-21T09:31:31;94463.47;;;23.44;63.55
69524;BME280;56723;42.694;23.286;2022-08-21T09:34:01;94445.72;;;23.40;64.12
69524;BME280;56723;42.694;23.286;2022-08-21T09:36:41;94452.72;;;23.66;64.61
69524;BME280;56723;42.694;23.286;2022-08-21T09:39:10;94452.63;;;23.46;63.45
69524;BME280;56723;42.694;23.286;2022-08-21T09:41:39;94453.41;;;23.46;62.80
69524;BME280;56723;42.694;23.286;2022-08-21T09:44:08;94448.09;;;23.41;63.29
69524;BME280;56723;42.694;23.286;2022-08-21T09:46:35;94448.41;;;23.50;62.80
69524;BME280;56723;42.694;23.286;2022-08-21T09:49:04;94442.91;;;23.57;62.49
69524;BME280;56723;42.694;23.286;2022-08-21T09:51:50;94450.06;;;23.61;62.13
69524;BME280;56723;42.694;23.286;2022-08-21T09:54:19;94447.16;;;23.63;62.22
69524;BME280;56723;42.694;23.286;2022-08-21T09:59:55;94430.47;;;23.57;62.78
69524;BME280;56723;42.694;23.286;2022-08-21T10:02:31;94436.84;;;23.61;63.01
69524;BME280;56723;42.694;23.286;2022-08-21T10:05:08;94441.06;;;23.62;63.63
69524;BME280;56723;42.694;23.286;2022-08-21T10:07:42;94422.03;;;23.55;63.32
69524;BME280;56723;42.694;23.286;2022-08-21T10:10:14;94422.56;;;23.62;63.66
69524;BME280;56723;42.694;23.286;2022-08-21T10:15:24;94422.84;;;23.66;63.07
69524;BME280;56723;42.694;23.286;2022-08-21T10:18:18;94429.75;;;23.82;63.37
69524;BME280;56723;42.694;23.286;2022-08-21T10:20:56;94425.00;;;23.99;63.42
69524;BME280;56723;42.694;23.286;2022-08-21T10:32:09;94410.50;;;24.42;60.02
69524;BME280;56723;42.694;23.286;2022-08-21T10:35:39;94413.16;;;24.68;58.95
69524;BME280;56723;42.694;23.286;2022-08-21T10:41:12;94412.06;;;24.54;57.53
69524;BME280;56723;42.694;23.286;2022-08-21T10:52:19;94403.53;;;24.92;57.50
69524;BME280;56723;42.694;23.286;2022-08-21T10:54:52;94394.47;;;25.18;57.06
69524;BME280;56723;42.694;23.286;2022-08-21T10:57:29;94386.13;;;25.45;57.68
69524;BME280;56723;42.694;23.286;2022-08-21T11:00:04;94379.44;;;25.63;56.01
69524;BME280;56723;42.694;23.286;2022-08-21T11:02:39;94379.13;;;25.75;55.33
69524;BME280;56723;42.694;23.286;2022-08-21T11:05:21;94374.66;;;25.65;53.54
69524;BME280;56723;42.694;23.286;2022-08-21T11:08:01;94376.03;;;25.52;55.18
69524;BME280;56723;42.694;23.286;2022-08-21T11:10:38;94373.34;;;25.63;54.55
69524;BME280;56723;42.694;23.286;2022-08-21T11:24:31;94355.50;;;25.73;53.76
69524;BME280;56723;42.694;23.286;2022-08-21T11:27:28;94357.97;;;25.99;52.75
69524;BME280;56723;42.694;23.286;2022-08-21T11:30:00;94354.16;;;26.15;53.70
69524;BME280;56723;42.694;23.286;2022-08-21T11:35:25;94356.63;;;26.35;52.96
69524;BME280;56723;42.694;23.286;2022-08-21T11:40:42;94351.75;;;26.47;53.45
69524;BME280;56723;42.694;23.286;2022-08-21T11:45:51;94346.25;;;26.39;50.80
69524;BME280;56723;42.694;23.286;2022-08-21T11:51:39;94350.91;;;26.18;51.53
69524;BME280;56723;42.694;23.286;2022-08-21T11:54:25;94344.00;;;26.17;51.80
69524;BME280;56723;42.694;23.286;2022-08-21T11:57:01;94350.91;;;26.18;51.76
69524;BME280;56723;42.694;23.286;2022-08-21T11:59:39;94346.56;;;25.98;50.69
69524;BME280;56723;42.694;23.286;2022-08-21T12:02:14;94344.75;;;25.94;51.35
69524;BME280;56723;42.694;23.286;2022-08-21T12:04:49;94335.78;;;25.84;51.54
69524;BME280;56723;42.694;23.286;2022-08-21T12:10:10;94331.34;;;25.75;51.89
69524;BME280;56723;42.694;23.286;2022-08-21T12:12:40;94325.81;;;25.61;52.06
69524;BME280;56723;42.694;23.286;2022-08-21T12:20:44;94338.16;;;25.42;53.77
69524;BME280;56723;42.694;23.286;2022-08-21T12:23:24;94337.66;;;25.35;53.53
69524;BME280;56723;42.694;23.286;2022-08-21T12:26:10;94329.81;;;25.14;54.00
69524;BME280;56723;42.694;23.286;2022-08-21T12:28:39;94329.88;;;24.99;53.31
69524;BME280;56723;42.694;23.286;2022-08-21T12:31:27;94336.50;;;24.97;54.92
69524;BME280;56723;42.694;23.286;2022-08-21T12:33:58;94339.41;;;24.95;53.97
69524;BME280;56723;42.694;23.286;2022-08-21T12:36:42;94339.66;;;24.89;54.38
69524;BME280;56723;42.694;23.286;2022-08-21T12:39:23;94337.59;;;24.85;53.71
69524;BME280;56723;42.694;23.286;2022-08-21T12:42:01;94329.91;;;24.79;53.41
69524;BME280;56723;42.694;23.286;2022-08-21T12:44:38;94343.16;;;24.79;53.54
69524;BME280;56723;42.694;23.286;2022-08-21T12:47:34;94332.03;;;24.72;52.71
69524;BME280;56723;42.694;23.286;2022-08-21T12:50:23;94331.03;;;24.63;53.07
69524;BME280;56723;42.694;23.286;2022-08-21T12:52:58;94324.94;;;24.62;53.78
69524;BME280;56723;42.694;23.286;2022-08-21T12:55:32;94319.94;;;24.45;52.89
69524;BME280;56723;42.694;23.286;2022-08-21T12:58:00;94329.72;;;24.50;53.44
69524;BME280;56723;42.694;23.286;2022-08-21T13:00:29;94333.94;;;24.51;53.59
69524;BME280;56723;42.694;23.286;2022-08-21T13:02:56;94337.66;;;24.50;54.35
69524;BME280;56723;42.694;23.286;2022-08-21T13:05:33;94332.13;;;24.41;53.36
69524;BME280;56723;42.694;23.286;2022-08-21T13:08:07;94327.88;;;24.35;54.41
69524;BME280;56723;42.694;23.286;2022-08-21T13:10:36;94327.63;;;24.32;54.29
69524;BME280;56723;42.694;23.286;2022-08-21T13:13:07;94324.44;;;24.20;54.41
69524;BME280;56723;42.694;23.286;2022-08-21T13:15:40;94325.78;;;24.12;55.48
69524;BME280;56723;42.694;23.286;2022-08-21T13:18:22;94326.28;;;24.19;55.41
69524;BME280;56723;42.694;23.286;2022-08-21T13:20:50;94320.47;;;24.22;56.08
69524;BME280;56723;42.694;23.286;2022-08-21T13:25:45;94322.06;;;24.23;56.96
69524;BME280;56723;42.694;23.286;2022-08-21T13:28:12;94315.19;;;24.27;56.58
69524;BME280;56723;42.694;23.286;2022-08-21T13:30:46;94309.34;;;24.35;57.44
69524;BME280;56723;42.694;23.286;2022-08-21T13:33:15;94280.75;;;24.37;55.87
69524;BME280;56723;42.694;23.286;2022-08-21T13:38:26;94287.84;;;24.62;54.94
69524;BME280;56723;42.694;23.286;2022-08-21T13:40:57;94292.03;;;24.68;54.91
69524;BME280;56723;42.694;23.286;2022-08-21T13:43:31;94303.69;;;24.72;55.16
69524;BME280;56723;42.694;23.286;2022-08-21T13:45:58;94304.78;;;24.66;55.24
69524;BME280;56723;42.694;23.286;2022-08-21T13:48:30;94300.03;;;24.63;55.04
69524;BME280;56723;42.694;23.286;2022-08-21T13:50:58;94290.75;;;24.66;55.79
69524;BME280;56723;42.694;23.286;2022-08-21T13:56:04;94294.47;;;24.55;56.88
69524;BME280;56723;42.694;23.286;2022-08-21T13:58:43;94298.72;;;24.56;57.86
69524;BME280;56723;42.694;23.286;2022-08-21T14:01:30;94300.84;;;24.54;57.83
69524;BME280;56723;42.694;23.286;2022-08-21T14:04:06;94293.41;;;24.56;57.49
69524;BME280;56723;42.694;23.286;2022-08-21T14:06:36;94290.25;;;24.54;58.18
69524;BME280;56723;42.694;23.286;2022-08-21T14:09:13;94292.34;;;24.62;57.94
69524;BME280;56723;42.694;23.286;2022-08-21T14:11:50;94274.34;;;24.64;58.06
69524;BME280;56723;42.694;23.286;2022-08-21T14:14:43;94284.38;;;24.67;57.21
69524;BME280;56723;42.694;23.286;2022-08-21T14:17:33;94283.34;;;24.63;56.93
69524;BME280;56723;42.694;23.286;2022-08-21T14:20:02;94283.34;;;24.63;56.86
69524;BME280;56723;42.694;23.286;2022-08-21T14:22:37;94288.13;;;24.56;57.60
69524;BME280;56723;42.694;23.286;2022-08-21T14:25:15;94296.06;;;24.50;57.51
69524;BME280;56723;42.694;23.286;2022-08-21T14:28:15;94289.22;;;24.39;59.45